sensor_id;sensor_type;location;lat;lon;timestamp;P1;durP1;ratioP1;P2;durP2;ratioP2
65835;SDS011;52595;51.608;7.216;2023-08-07T00:00:34;7.57;;;3.95;;
65835;SDS011;52595;51.608;7.216;2023-08-07T00:03:00;3.95;;;3.10;;
65835;SDS011;52595;51.608;7.216;2023-08-07T00:05:25;4.97;;;2.33;;
65835;SDS011;52595;51.608;7.216;2023-08-07T00:07:51;3.75;;;2.20;;
65835;SDS011;52595;51.608;7.216;2023-08-07T00:10:16;3.00;;;2.10;;
65835;SDS011;52595;51.608;7.216;2023-08-07T00:12:42;4.38;;;1.80;;
65835;SDS011;52595;51.608;7.216;2023-08-07T00:15:08;1.98;;;1.00;;
65835;SDS011;52595;51.608;7.216;2023-08-07T00:17:35;1.92;;;1.50;;
65835;SDS011;52595;51.608;7.216;2023-08-07T00:20:00;1.77;;;1.25;;
65835;SDS011;52595;51.608;7.216;2023-08-07T00:22:25;1.40;;;1.20;;
65835;SDS011;52595;51.608;7.216;2023-08-07T00:24:51;1.38;;;1.25;;
65835;SDS011;52595;51.608;7.216;2023-08-07T00:27:16;1.77;;;1.23;;
65835;SDS011;52595;51.608;7.216;2023-08-07T00:29:42;2.75;;;1.45;;
65835;SDS011;52595;51.608;7.216;2023-08-07T00:32:07;3.85;;;1.30;;
65835;SDS011;52595;51.608;7.216;2023-08-07T00:34:33;2.70;;;1.23;;
65835;SDS011;52595;51.608;7.216;2023-08-07T00:36:59;4.38;;;1.60;;
65835;SDS011;52595;51.608;7.216;2023-08-07T00:39:24;3.75;;;1.70;;
65835;SDS011;52595;51.608;7.216;2023-08-07T00:41:49;3.60;;;1.60;;
65835;SDS011;52595;51.608;7.216;2023-08-07T00:44:15;3.03;;;1.52;;
65835;SDS011;52595;51.608;7.216;2023-08-07T00:46:40;4.10;;;1.52;;
65835;SDS011;52595;51.608;7.216;2023-08-07T00:49:07;4.55;;;1.50;;
65835;SDS011;52595;51.608;7.216;2023-08-07T00:51:34;3.65;;;1.40;;
65835;SDS011;52595;51.608;7.216;2023-08-07T00:54:00;4.53;;;1.88;;
65835;SDS011;52595;51.608;7.216;2023-08-07T00:56:28;4.85;;;1.60;;
65835;SDS011;52595;51.608;7.216;2023-08-07T00:58:55;5.13;;;1.50;;
65835;SDS011;52595;51.608;7.216;2023-08-07T01:01:20;3.60;;;1.80;;
65835;SDS011;52595;51.608;7.216;2023-08-07T01:03:46;4.53;;;1.70;;
65835;SDS011;52595;51.608;7.216;2023-08-07T01:06:11;4.75;;;2.03;;
65835;SDS011;52595;51.608;7.216;2023-08-07T01:08:37;4.32;;;2.00;;
65835;SDS011;52595;51.608;7.216;2023-08-07T01:16:52;6.82;;;2.13;;
65835;SDS011;52595;51.608;7.216;2023-08-07T01:19:23;5.57;;;2.03;;
65835;SDS011;52595;51.608;7.216;2023-08-07T01:22:03;5.85;;;2.60;;
65835;SDS011;52595;51.608;7.216;2023-08-07T01:24:30;6.55;;;2.65;;
65835;SDS011;52595;51.608;7.216;2023-08-07T01:26:55;9.35;;;2.80;;
65835;SDS011;52595;51.608;7.216;2023-08-07T01:29:27;6.60;;;2.90;;
65835;SDS011;52595;51.608;7.216;2023-08-07T01:32:02;6.18;;;2.35;;
65835;SDS011;52595;51.608;7.216;2023-08-07T01:34:31;8.75;;;3.10;;
65835;SDS011;52595;51.608;7.216;2023-08-07T01:36:57;5.70;;;3.13;;
65835;SDS011;52595;51.608;7.216;2023-08-07T01:39:24;5.97;;;2.63;;
65835;SDS011;52595;51.608;7.216;2023-08-07T01:41:49;8.10;;;2.85;;
65835;SDS011;52595;51.608;7.216;2023-08-07T01:44:15;6.63;;;2.50;;
65835;SDS011;52595;51.608;7.216;2023-08-07T01:46:43;7.05;;;2.40;;
65835;SDS011;52595;51.608;7.216;2023-08-07T01:49:08;6.88;;;2.53;;
65835;SDS011;52595;51.608;7.216;2023-08-07T01:51:34;5.75;;;2.40;;
65835;SDS011;52595;51.608;7.216;2023-08-07T01:53:59;3.95;;;2.17;;
65835;SDS011;52595;51.608;7.216;2023-08-07T01:56:24;4.07;;;2.08;;
65835;SDS011;52595;51.608;7.216;2023-08-07T01:58:50;5.35;;;2.60;;
65835;SDS011;52595;51.608;7.216;2023-08-07T02:01:15;5.72;;;2.33;;
65835;SDS011;52595;51.608;7.216;2023-08-07T02:03:41;5.63;;;2.03;;
65835;SDS011;52595;51.608;7.216;2023-08-07T02:06:06;3.88;;;1.80;;
65835;SDS011;52595;51.608;7.216;2023-08-07T02:08:31;6.25;;;1.95;;
65835;SDS011;52595;51.608;7.216;2023-08-07T02:10:57;6.43;;;1.83;;
65835;SDS011;52595;51.608;7.216;2023-08-07T02:13:22;3.80;;;2.13;;
65835;SDS011;52595;51.608;7.216;2023-08-07T02:15:47;5.18;;;1.80;;
65835;SDS011;52595;51.608;7.216;2023-08-07T02:18:13;3.00;;;1.42;;
65835;SDS011;52595;51.608;7.216;2023-08-07T02:20:38;5.90;;;1.65;;
65835;SDS011;52595;51.608;7.216;2023-08-07T02:23:04;5.28;;;1.52;;
65835;SDS011;52595;51.608;7.216;2023-08-07T02:25:29;4.13;;;1.73;;
65835;SDS011;52595;51.608;7.216;2023-08-07T02:27:55;6.38;;;2.80;;
65835;SDS011;52595;51.608;7.216;2023-08-07T02:30:20;4.28;;;1.70;;
65835;SDS011;52595;51.608;7.216;2023-08-07T02:32:45;3.50;;;1.50;;
65835;SDS011;52595;51.608;7.216;2023-08-07T02:35:11;2.45;;;1.40;;
65835;SDS011;52595;51.608;7.216;2023-08-07T02:37:37;4.72;;;1.90;;
65835;SDS011;52595;51.608;7.216;2023-08-07T02:40:02;3.80;;;1.73;;
65835;SDS011;52595;51.608;7.216;2023-08-07T02:42:29;4.57;;;1.67;;
65835;SDS011;52595;51.608;7.216;2023-08-07T02:44:54;4.63;;;1.55;;
65835;SDS011;52595;51.608;7.216;2023-08-07T02:47:19;2.92;;;1.30;;
65835;SDS011;52595;51.608;7.216;2023-08-07T02:49:45;3.25;;;1.42;;
65835;SDS011;52595;51.608;7.216;2023-08-07T02:52:10;2.65;;;1.63;;
65835;SDS011;52595;51.608;7.216;2023-08-07T02:54:35;2.60;;;1.40;;
65835;SDS011;52595;51.608;7.216;2023-08-07T02:57:01;6.70;;;1.70;;
65835;SDS011;52595;51.608;7.216;2023-08-07T02:59:26;3.70;;;1.80;;
65835;SDS011;52595;51.608;7.216;2023-08-07T03:01:53;4.30;;;1.70;;
65835;SDS011;52595;51.608;7.216;2023-08-07T03:04:18;3.90;;;1.50;;
65835;SDS011;52595;51.608;7.216;2023-08-07T03:06:43;2.85;;;1.42;;
65835;SDS011;52595;51.608;7.216;2023-08-07T03:09:09;3.05;;;1.50;;
65835;SDS011;52595;51.608;7.216;2023-08-07T03:11:35;4.47;;;1.52;;
65835;SDS011;52595;51.608;7.216;2023-08-07T03:14:01;1.85;;;1.40;;
65835;SDS011;52595;51.608;7.216;2023-08-07T03:16:26;4.38;;;1.38;;
65835;SDS011;52595;51.608;7.216;2023-08-07T03:18:51;4.63;;;1.45;;
65835;SDS011;52595;51.608;7.216;2023-08-07T03:21:17;3.25;;;1.50;;
65835;SDS011;52595;51.608;7.216;2023-08-07T03:23:42;3.97;;;1.77;;
65835;SDS011;52595;51.608;7.216;2023-08-07T03:26:08;7.15;;;2.22;;
65835;SDS011;52595;51.608;7.216;2023-08-07T03:28:35;5.65;;;2.25;;
65835;SDS011;52595;51.608;7.216;2023-08-07T03:31:02;5.00;;;2.13;;
65835;SDS011;52595;51.608;7.216;2023-08-07T03:33:28;6.10;;;2.28;;
65835;SDS011;52595;51.608;7.216;2023-08-07T03:35:53;4.05;;;2.22;;
65835;SDS011;52595;51.608;7.216;2023-08-07T03:38:19;5.93;;;2.50;;
65835;SDS011;52595;51.608;7.216;2023-08-07T03:40:44;7.68;;;2.38;;
65835;SDS011;52595;51.608;7.216;2023-08-07T03:43:09;12.90;;;3.60;;
65835;SDS011;52595;51.608;7.216;2023-08-07T03:45:35;7.97;;;2.67;;
65835;SDS011;52595;51.608;7.216;2023-08-07T03:48:00;9.50;;;3.22;;
65835;SDS011;52595;51.608;7.216;2023-08-07T03:50:25;10.77;;;3.40;;
65835;SDS011;52595;51.608;7.216;2023-08-07T03:52:51;9.73;;;3.53;;
65835;SDS011;52595;51.608;7.216;2023-08-07T03:55:16;7.85;;;3.35;;
65835;SDS011;52595;51.608;7.216;2023-08-07T03:57:43;10.45;;;3.55;;
65835;SDS011;52595;51.608;7.216;2023-08-07T04:00:08;11.32;;;4.07;;
65835;SDS011;52595;51.608;7.216;2023-08-07T04:02:37;11.70;;;4.30;;
65835;SDS011;52595;51.608;7.216;2023-08-07T04:05:02;8.60;;;3.67;;
65835;SDS011;52595;51.608;7.216;2023-08-07T04:07:28;12.23;;;3.92;;
65835;SDS011;52595;51.608;7.216;2023-08-07T04:09:53;12.63;;;3.50;;
65835;SDS011;52595;51.608;7.216;2023-08-07T04:12:19;14.20;;;4.07;;
65835;SDS011;52595;51.608;7.216;2023-08-07T04:14:44;13.25;;;3.78;;
65835;SDS011;52595;51.608;7.216;2023-08-07T04:17:09;7.40;;;3.50;;
65835;SDS011;52595;51.608;7.216;2023-08-07T04:19:36;17.33;;;3.90;;
65835;SDS011;52595;51.608;7.216;2023-08-07T04:22:01;9.88;;;3.88;;
65835;SDS011;52595;51.608;7.216;2023-08-07T04:24:27;11.80;;;4.05;;
65835;SDS011;52595;51.608;7.216;2023-08-07T04:26:52;10.15;;;3.97;;
65835;SDS011;52595;51.608;7.216;2023-08-07T04:29:20;10.95;;;3.92;;
65835;SDS011;52595;51.608;7.216;2023-08-07T04:31:45;10.18;;;3.40;;
65835;SDS011;52595;51.608;7.216;2023-08-07T04:34:11;10.85;;;3.20;;
65835;SDS011;52595;51.608;7.216;2023-08-07T04:36:37;8.48;;;3.20;;
65835;SDS011;52595;51.608;7.216;2023-08-07T04:39:03;10.88;;;3.63;;
65835;SDS011;52595;51.608;7.216;2023-08-07T04:41:28;13.25;;;4.20;;
65835;SDS011;52595;51.608;7.216;2023-08-07T04:43:54;12.65;;;4.55;;
65835;SDS011;52595;51.608;7.216;2023-08-07T04:46:21;11.52;;;5.38;;
65835;SDS011;52595;51.608;7.216;2023-08-07T04:48:47;13.20;;;5.85;;
65835;SDS011;52595;51.608;7.216;2023-08-07T04:51:13;12.63;;;6.43;;
65835;SDS011;52595;51.608;7.216;2023-08-07T04:53:38;11.13;;;6.15;;
65835;SDS011;52595;51.608;7.216;2023-08-07T04:56:04;12.70;;;6.10;;
65835;SDS011;52595;51.608;7.216;2023-08-07T04:58:29;13.30;;;5.82;;
65835;SDS011;52595;51.608;7.216;2023-08-07T05:00:58;12.05;;;4.82;;
65835;SDS011;52595;51.608;7.216;2023-08-07T05:03:24;9.95;;;5.47;;
65835;SDS011;52595;51.608;7.216;2023-08-07T05:05:50;10.70;;;5.35;;
65835;SDS011;52595;51.608;7.216;2023-08-07T05:08:16;13.98;;;6.57;;
65835;SDS011;52595;51.608;7.216;2023-08-07T05:10:44;13.55;;;6.50;;
65835;SDS011;52595;51.608;7.216;2023-08-07T05:13:10;12.48;;;6.28;;
65835;SDS011;52595;51.608;7.216;2023-08-07T05:15:35;12.55;;;5.82;;
65835;SDS011;52595;51.608;7.216;2023-08-07T05:18:01;17.98;;;7.55;;
65835;SDS011;52595;51.608;7.216;2023-08-07T05:20:26;11.38;;;5.63;;
65835;SDS011;52595;51.608;7.216;2023-08-07T05:22:51;13.02;;;5.85;;
65835;SDS011;52595;51.608;7.216;2023-08-07T05:25:17;11.95;;;5.70;;
65835;SDS011;52595;51.608;7.216;2023-08-07T05:27:45;14.90;;;5.40;;
65835;SDS011;52595;51.608;7.216;2023-08-07T05:30:12;8.90;;;5.53;;
65835;SDS011;52595;51.608;7.216;2023-08-07T05:32:38;11.35;;;5.80;;
65835;SDS011;52595;51.608;7.216;2023-08-07T05:35:04;10.32;;;5.80;;
65835;SDS011;52595;51.608;7.216;2023-08-07T05:37:30;12.70;;;6.18;;
65835;SDS011;52595;51.608;7.216;2023-08-07T05:39:56;12.60;;;6.50;;
65835;SDS011;52595;51.608;7.216;2023-08-07T05:42:22;10.52;;;6.68;;
65835;SDS011;52595;51.608;7.216;2023-08-07T05:44:48;11.55;;;5.60;;
65835;SDS011;52595;51.608;7.216;2023-08-07T05:47:13;10.52;;;6.85;;
65835;SDS011;52595;51.608;7.216;2023-08-07T05:49:41;13.48;;;7.20;;
65835;SDS011;52595;51.608;7.216;2023-08-07T05:52:07;10.65;;;6.13;;
65835;SDS011;52595;51.608;7.216;2023-08-07T05:54:33;13.55;;;6.32;;
65835;SDS011;52595;51.608;7.216;2023-08-07T05:56:58;10.20;;;6.13;;
65835;SDS011;52595;51.608;7.216;2023-08-07T05:59:24;12.75;;;6.30;;
65835;SDS011;52595;51.608;7.216;2023-08-07T06:01:49;12.02;;;6.45;;
65835;SDS011;52595;51.608;7.216;2023-08-07T06:04:16;12.68;;;6.15;;
65835;SDS011;52595;51.608;7.216;2023-08-07T06:06:41;9.50;;;5.80;;
65835;SDS011;52595;51.608;7.216;2023-08-07T06:09:07;11.13;;;5.85;;
65835;SDS011;52595;51.608;7.216;2023-08-07T06:11:33;8.85;;;5.10;;
65835;SDS011;52595;51.608;7.216;2023-08-07T06:13:58;11.35;;;5.72;;
65835;SDS011;52595;51.608;7.216;2023-08-07T06:16:24;14.20;;;5.38;;
65835;SDS011;52595;51.608;7.216;2023-08-07T06:18:49;14.10;;;4.05;;
65835;SDS011;52595;51.608;7.216;2023-08-07T06:21:15;11.70;;;4.10;;
65835;SDS011;52595;51.608;7.216;2023-08-07T06:23:40;11.60;;;4.50;;
65835;SDS011;52595;51.608;7.216;2023-08-07T06:26:07;10.25;;;3.75;;
65835;SDS011;52595;51.608;7.216;2023-08-07T06:28:33;12.45;;;4.18;;
65835;SDS011;52595;51.608;7.216;2023-08-07T06:31:05;8.30;;;3.42;;
65835;SDS011;52595;51.608;7.216;2023-08-07T06:33:31;6.90;;;3.10;;
65835;SDS011;52595;51.608;7.216;2023-08-07T06:35:58;7.20;;;3.58;;
65835;SDS011;52595;51.608;7.216;2023-08-07T06:38:24;9.07;;;3.30;;
65835;SDS011;52595;51.608;7.216;2023-08-07T06:40:50;9.85;;;3.00;;
65835;SDS011;52595;51.608;7.216;2023-08-07T06:43:15;5.60;;;3.00;;
65835;SDS011;52595;51.608;7.216;2023-08-07T06:45:40;9.73;;;3.10;;
65835;SDS011;52595;51.608;7.216;2023-08-07T06:48:06;6.82;;;3.28;;
65835;SDS011;52595;51.608;7.216;2023-08-07T06:50:31;7.47;;;2.92;;
65835;SDS011;52595;51.608;7.216;2023-08-07T06:52:56;6.32;;;2.60;;
65835;SDS011;52595;51.608;7.216;2023-08-07T06:55:22;7.65;;;2.80;;
65835;SDS011;52595;51.608;7.216;2023-08-07T06:57:47;4.78;;;2.60;;
65835;SDS011;52595;51.608;7.216;2023-08-07T07:00:13;7.97;;;2.63;;
65835;SDS011;52595;51.608;7.216;2023-08-07T07:02:39;4.57;;;2.25;;
65835;SDS011;52595;51.608;7.216;2023-08-07T07:05:04;4.65;;;2.30;;
65835;SDS011;52595;51.608;7.216;2023-08-07T07:07:30;5.05;;;2.33;;
65835;SDS011;52595;51.608;7.216;2023-08-07T07:09:55;4.60;;;2.40;;
65835;SDS011;52595;51.608;7.216;2023-08-07T07:12:23;4.72;;;2.28;;
65835;SDS011;52595;51.608;7.216;2023-08-07T07:14:51;5.38;;;2.33;;
65835;SDS011;52595;51.608;7.216;2023-08-07T07:17:16;6.97;;;2.08;;
65835;SDS011;52595;51.608;7.216;2023-08-07T07:19:42;3.92;;;2.10;;
65835;SDS011;52595;51.608;7.216;2023-08-07T07:22:07;3.58;;;2.05;;
65835;SDS011;52595;51.608;7.216;2023-08-07T07:24:33;4.78;;;2.22;;
65835;SDS011;52595;51.608;7.216;2023-08-07T07:26:58;9.10;;;2.47;;
65835;SDS011;52595;51.608;7.216;2023-08-07T07:29:23;4.35;;;1.98;;
65835;SDS011;52595;51.608;7.216;2023-08-07T07:31:49;6.82;;;2.38;;
65835;SDS011;52595;51.608;7.216;2023-08-07T07:34:15;7.35;;;2.67;;
65835;SDS011;52595;51.608;7.216;2023-08-07T07:36:40;5.57;;;2.45;;
65835;SDS011;52595;51.608;7.216;2023-08-07T07:39:06;4.53;;;2.55;;
65835;SDS011;52595;51.608;7.216;2023-08-07T07:41:31;6.82;;;2.75;;
65835;SDS011;52595;51.608;7.216;2023-08-07T07:43:57;5.55;;;2.58;;
65835;SDS011;52595;51.608;7.216;2023-08-07T07:46:23;7.30;;;2.78;;
65835;SDS011;52595;51.608;7.216;2023-08-07T07:48:49;5.55;;;2.85;;
65835;SDS011;52595;51.608;7.216;2023-08-07T07:51:15;7.60;;;2.92;;
65835;SDS011;52595;51.608;7.216;2023-08-07T07:53:40;6.78;;;2.80;;
65835;SDS011;52595;51.608;7.216;2023-08-07T07:56:05;7.72;;;2.95;;
65835;SDS011;52595;51.608;7.216;2023-08-07T07:58:31;8.07;;;3.10;;
65835;SDS011;52595;51.608;7.216;2023-08-07T08:00:56;7.47;;;3.00;;
65835;SDS011;52595;51.608;7.216;2023-08-07T08:03:21;6.70;;;3.00;;
65835;SDS011;52595;51.608;7.216;2023-08-07T08:05:51;5.97;;;2.80;;
65835;SDS011;52595;51.608;7.216;2023-08-07T08:08:17;7.20;;;2.80;;
65835;SDS011;52595;51.608;7.216;2023-08-07T08:10:43;7.82;;;2.80;;
65835;SDS011;52595;51.608;7.216;2023-08-07T08:13:09;10.35;;;3.17;;
65835;SDS011;52595;51.608;7.216;2023-08-07T08:15:35;9.35;;;2.92;;
65835;SDS011;52595;51.608;7.216;2023-08-07T08:18:00;6.85;;;2.85;;
65835;SDS011;52595;51.608;7.216;2023-08-07T08:20:25;6.38;;;2.60;;
65835;SDS011;52595;51.608;7.216;2023-08-07T08:22:51;6.10;;;2.30;;
65835;SDS011;52595;51.608;7.216;2023-08-07T08:25:16;4.35;;;2.10;;
65835;SDS011;52595;51.608;7.216;2023-08-07T08:27:44;4.72;;;2.35;;
65835;SDS011;52595;51.608;7.216;2023-08-07T08:30:10;8.07;;;2.42;;
65835;SDS011;52595;51.608;7.216;2023-08-07T08:32:36;6.45;;;2.50;;
65835;SDS011;52595;51.608;7.216;2023-08-07T08:35:01;7.45;;;2.53;;
65835;SDS011;52595;51.608;7.216;2023-08-07T08:37:27;9.07;;;2.58;;
65835;SDS011;52595;51.608;7.216;2023-08-07T08:39:54;10.05;;;2.58;;
65835;SDS011;52595;51.608;7.216;2023-08-07T08:42:19;8.85;;;2.70;;
65835;SDS011;52595;51.608;7.216;2023-08-07T08:44:51;6.28;;;2.35;;
65835;SDS011;52595;51.608;7.216;2023-08-07T08:47:17;7.70;;;2.80;;
65835;SDS011;52595;51.608;7.216;2023-08-07T08:49:45;7.80;;;2.80;;
65835;SDS011;52595;51.608;7.216;2023-08-07T08:52:12;8.63;;;2.70;;
65835;SDS011;52595;51.608;7.216;2023-08-07T08:54:42;7.78;;;3.10;;
65835;SDS011;52595;51.608;7.216;2023-08-07T08:57:11;9.13;;;2.92;;
65835;SDS011;52595;51.608;7.216;2023-08-07T08:59:38;9.00;;;3.33;;
65835;SDS011;52595;51.608;7.216;2023-08-07T09:02:05;11.43;;;3.78;;
65835;SDS011;52595;51.608;7.216;2023-08-07T09:04:30;13.88;;;3.90;;
65835;SDS011;52595;51.608;7.216;2023-08-07T09:06:56;9.57;;;3.42;;
65835;SDS011;52595;51.608;7.216;2023-08-07T09:09:24;9.73;;;3.20;;
65835;SDS011;52595;51.608;7.216;2023-08-07T09:11:49;11.73;;;3.10;;
65835;SDS011;52595;51.608;7.216;2023-08-07T09:14:17;8.63;;;3.38;;
65835;SDS011;52595;51.608;7.216;2023-08-07T09:16:47;12.93;;;3.85;;
65835;SDS011;52595;51.608;7.216;2023-08-07T09:19:14;8.40;;;3.35;;
65835;SDS011;52595;51.608;7.216;2023-08-07T09:21:39;13.00;;;3.80;;
65835;SDS011;52595;51.608;7.216;2023-08-07T09:24:04;8.27;;;3.30;;
65835;SDS011;52595;51.608;7.216;2023-08-07T09:26:32;11.25;;;3.28;;
65835;SDS011;52595;51.608;7.216;2023-08-07T09:28:58;11.85;;;2.88;;
65835;SDS011;52595;51.608;7.216;2023-08-07T09:31:24;10.68;;;3.20;;
65835;SDS011;52595;51.608;7.216;2023-08-07T09:34:00;13.00;;;3.28;;
65835;SDS011;52595;51.608;7.216;2023-08-07T09:36:31;13.75;;;3.45;;
65835;SDS011;52595;51.608;7.216;2023-08-07T09:39:00;9.55;;;3.50;;
65835;SDS011;52595;51.608;7.216;2023-08-07T09:41:27;7.47;;;3.13;;
65835;SDS011;52595;51.608;7.216;2023-08-07T09:43:54;12.15;;;3.45;;
65835;SDS011;52595;51.608;7.216;2023-08-07T09:46:19;13.38;;;3.38;;
65835;SDS011;52595;51.608;7.216;2023-08-07T09:48:45;8.80;;;2.65;;
65835;SDS011;52595;51.608;7.216;2023-08-07T09:51:10;11.85;;;3.00;;
65835;SDS011;52595;51.608;7.216;2023-08-07T09:53:36;12.27;;;3.53;;
65835;SDS011;52595;51.608;7.216;2023-08-07T09:56:02;11.05;;;2.80;;
65835;SDS011;52595;51.608;7.216;2023-08-07T09:58:28;12.68;;;3.20;;
65835;SDS011;52595;51.608;7.216;2023-08-07T10:00:58;7.70;;;2.90;;
65835;SDS011;52595;51.608;7.216;2023-08-07T10:03:25;10.65;;;2.83;;
65835;SDS011;52595;51.608;7.216;2023-08-07T10:05:51;9.80;;;2.83;;
65835;SDS011;52595;51.608;7.216;2023-08-07T10:08:16;7.18;;;2.50;;
65835;SDS011;52595;51.608;7.216;2023-08-07T10:10:43;7.43;;;2.15;;
65835;SDS011;52595;51.608;7.216;2023-08-07T10:13:10;10.38;;;2.35;;
65835;SDS011;52595;51.608;7.216;2023-08-07T10:15:37;6.15;;;2.10;;
65835;SDS011;52595;51.608;7.216;2023-08-07T10:18:05;8.68;;;2.70;;
65835;SDS011;52595;51.608;7.216;2023-08-07T10:20:31;6.45;;;2.63;;
65835;SDS011;52595;51.608;7.216;2023-08-07T10:23:00;7.85;;;2.35;;
65835;SDS011;52595;51.608;7.216;2023-08-07T10:25:28;7.35;;;2.38;;
65835;SDS011;52595;51.608;7.216;2023-08-07T10:27:54;10.85;;;2.58;;
65835;SDS011;52595;51.608;7.216;2023-08-07T10:30:22;10.45;;;3.08;;
65835;SDS011;52595;51.608;7.216;2023-08-07T10:32:49;8.85;;;2.70;;
65835;SDS011;52595;51.608;7.216;2023-08-07T10:35:23;8.02;;;2.80;;
65835;SDS011;52595;51.608;7.216;2023-08-07T10:37:50;4.88;;;2.05;;
65835;SDS011;52595;51.608;7.216;2023-08-07T10:40:16;8.05;;;2.85;;
65835;SDS011;52595;51.608;7.216;2023-08-07T10:45:20;9.38;;;2.95;;
65835;SDS011;52595;51.608;7.216;2023-08-07T10:50:50;7.85;;;2.60;;
65835;SDS011;52595;51.608;7.216;2023-08-07T10:56:07;5.10;;;2.40;;
65835;SDS011;52595;51.608;7.216;2023-08-07T10:58:35;7.50;;;2.22;;
65835;SDS011;52595;51.608;7.216;2023-08-07T11:03:55;8.98;;;2.67;;
65835;SDS011;52595;51.608;7.216;2023-08-07T11:06:25;9.35;;;2.58;;
65835;SDS011;52595;51.608;7.216;2023-08-07T11:08:52;6.63;;;2.50;;
65835;SDS011;52595;51.608;7.216;2023-08-07T11:11:18;7.20;;;2.70;;
65835;SDS011;52595;51.608;7.216;2023-08-07T11:13:44;9.77;;;2.45;;
65835;SDS011;52595;51.608;7.216;2023-08-07T11:16:09;5.47;;;2.28;;
65835;SDS011;52595;51.608;7.216;2023-08-07T11:18:36;8.48;;;2.65;;
65835;SDS011;52595;51.608;7.216;2023-08-07T11:21:05;7.65;;;2.28;;
65835;SDS011;52595;51.608;7.216;2023-08-07T11:23:31;6.13;;;2.28;;
65835;SDS011;52595;51.608;7.216;2023-08-07T11:25:56;11.00;;;2.80;;
65835;SDS011;52595;51.608;7.216;2023-08-07T11:28:22;9.13;;;2.67;;
65835;SDS011;52595;51.608;7.216;2023-08-07T11:30:49;7.57;;;2.45;;
65835;SDS011;52595;51.608;7.216;2023-08-07T11:33:17;6.85;;;2.17;;
65835;SDS011;52595;51.608;7.216;2023-08-07T11:35:45;11.13;;;2.58;;
65835;SDS011;52595;51.608;7.216;2023-08-07T11:38:12;8.30;;;2.30;;
65835;SDS011;52595;51.608;7.216;2023-08-07T11:40:38;8.85;;;2.50;;
65835;SDS011;52595;51.608;7.216;2023-08-07T11:43:03;7.18;;;2.38;;
65835;SDS011;52595;51.608;7.216;2023-08-07T11:45:29;6.00;;;2.17;;
65835;SDS011;52595;51.608;7.216;2023-08-07T11:47:55;8.88;;;2.30;;
65835;SDS011;52595;51.608;7.216;2023-08-07T11:50:22;6.65;;;2.15;;
65835;SDS011;52595;51.608;7.216;2023-08-07T11:52:47;6.95;;;2.20;;
65835;SDS011;52595;51.608;7.216;2023-08-07T11:55:16;6.07;;;1.95;;
65835;SDS011;52595;51.608;7.216;2023-08-07T11:57:44;9.43;;;2.15;;
65835;SDS011;52595;51.608;7.216;2023-08-07T12:00:11;6.45;;;2.40;;
65835;SDS011;52595;51.608;7.216;2023-08-07T12:02:41;6.35;;;2.20;;
65835;SDS011;52595;51.608;7.216;2023-08-07T12:05:08;5.60;;;2.17;;
65835;SDS011;52595;51.608;7.216;2023-08-07T12:07:36;7.75;;;2.45;;
65835;SDS011;52595;51.608;7.216;2023-08-07T12:10:02;6.93;;;2.40;;
65835;SDS011;52595;51.608;7.216;2023-08-07T12:12:37;4.88;;;2.20;;
65835;SDS011;52595;51.608;7.216;2023-08-07T12:15:12;10.63;;;2.40;;
65835;SDS011;52595;51.608;7.216;2023-08-07T12:17:38;6.80;;;2.40;;
65835;SDS011;52595;51.608;7.216;2023-08-07T12:20:04;5.95;;;1.92;;
65835;SDS011;52595;51.608;7.216;2023-08-07T12:22:32;10.20;;;2.70;;
65835;SDS011;52595;51.608;7.216;2023-08-07T12:24:58;6.78;;;2.20;;
65835;SDS011;52595;51.608;7.216;2023-08-07T12:27:23;7.95;;;2.17;;
65835;SDS011;52595;51.608;7.216;2023-08-07T12:29:49;8.73;;;2.38;;
65835;SDS011;52595;51.608;7.216;2023-08-07T12:32:14;6.45;;;2.03;;
65835;SDS011;52595;51.608;7.216;2023-08-07T12:34:40;6.82;;;2.30;;
65835;SDS011;52595;51.608;7.216;2023-08-07T12:37:05;7.32;;;2.35;;
65835;SDS011;52595;51.608;7.216;2023-08-07T12:39:31;6.68;;;2.22;;
65835;SDS011;52595;51.608;7.216;2023-08-07T12:41:56;7.05;;;2.60;;
65835;SDS011;52595;51.608;7.216;2023-08-07T12:44:23;9.43;;;2.45;;
65835;SDS011;52595;51.608;7.216;2023-08-07T12:46:48;7.47;;;2.42;;
65835;SDS011;52595;51.608;7.216;2023-08-07T12:49:14;7.00;;;2.28;;
65835;SDS011;52595;51.608;7.216;2023-08-07T12:51:40;6.00;;;1.88;;
65835;SDS011;52595;51.608;7.216;2023-08-07T12:54:05;6.63;;;2.20;;
65835;SDS011;52595;51.608;7.216;2023-08-07T12:56:31;6.38;;;1.95;;
65835;SDS011;52595;51.608;7.216;2023-08-07T12:58:56;6.93;;;2.45;;
65835;SDS011;52595;51.608;7.216;2023-08-07T13:01:21;6.90;;;2.30;;
65835;SDS011;52595;51.608;7.216;2023-08-07T13:03:47;5.45;;;1.80;;
65835;SDS011;52595;51.608;7.216;2023-08-07T13:06:12;6.60;;;2.33;;
65835;SDS011;52595;51.608;7.216;2023-08-07T13:08:38;6.38;;;2.30;;
65835;SDS011;52595;51.608;7.216;2023-08-07T13:11:04;4.75;;;2.08;;
65835;SDS011;52595;51.608;7.216;2023-08-07T13:13:29;3.85;;;2.15;;
65835;SDS011;52595;51.608;7.216;2023-08-07T13:15:58;5.25;;;2.00;;
65835;SDS011;52595;51.608;7.216;2023-08-07T13:18:24;7.43;;;2.00;;
65835;SDS011;52595;51.608;7.216;2023-08-07T13:20:49;5.55;;;2.20;;
65835;SDS011;52595;51.608;7.216;2023-08-07T13:23:15;5.70;;;1.90;;
65835;SDS011;52595;51.608;7.216;2023-08-07T13:25:40;6.07;;;2.20;;
65835;SDS011;52595;51.608;7.216;2023-08-07T13:28:06;6.60;;;1.75;;
65835;SDS011;52595;51.608;7.216;2023-08-07T13:30:32;5.35;;;1.77;;
65835;SDS011;52595;51.608;7.216;2023-08-07T13:33:00;4.95;;;1.67;;
65835;SDS011;52595;51.608;7.216;2023-08-07T13:35:26;3.97;;;1.60;;
65835;SDS011;52595;51.608;7.216;2023-08-07T13:37:51;7.85;;;2.30;;
65835;SDS011;52595;51.608;7.216;2023-08-07T13:40:17;6.07;;;1.83;;
65835;SDS011;52595;51.608;7.216;2023-08-07T13:42:43;6.30;;;1.98;;
65835;SDS011;52595;51.608;7.216;2023-08-07T13:45:09;5.57;;;2.00;;
65835;SDS011;52595;51.608;7.216;2023-08-07T13:47:35;7.60;;;2.22;;
65835;SDS011;52595;51.608;7.216;2023-08-07T13:50:01;5.72;;;2.25;;
65835;SDS011;52595;51.608;7.216;2023-08-07T13:52:27;4.43;;;2.30;;
65835;SDS011;52595;51.608;7.216;2023-08-07T13:54:52;10.57;;;2.80;;
65835;SDS011;52595;51.608;7.216;2023-08-07T13:57:18;10.98;;;3.03;;
65835;SDS011;52595;51.608;7.216;2023-08-07T13:59:43;8.45;;;3.10;;
65835;SDS011;52595;51.608;7.216;2023-08-07T14:02:09;10.55;;;3.20;;
65835;SDS011;52595;51.608;7.216;2023-08-07T14:04:34;9.60;;;3.60;;
65835;SDS011;52595;51.608;7.216;2023-08-07T14:07:00;10.57;;;2.92;;
65835;SDS011;52595;51.608;7.216;2023-08-07T14:09:26;7.40;;;3.60;;
65835;SDS011;52595;51.608;7.216;2023-08-07T14:11:52;7.45;;;3.08;;
65835;SDS011;52595;51.608;7.216;2023-08-07T14:14:17;8.27;;;3.30;;
65835;SDS011;52595;51.608;7.216;2023-08-07T14:16:43;7.07;;;3.05;;
65835;SDS011;52595;51.608;7.216;2023-08-07T14:19:09;7.03;;;2.75;;
65835;SDS011;52595;51.608;7.216;2023-08-07T14:21:34;7.90;;;2.90;;
65835;SDS011;52595;51.608;7.216;2023-08-07T14:24:00;9.40;;;2.95;;
65835;SDS011;52595;51.608;7.216;2023-08-07T14:26:25;7.88;;;3.03;;
65835;SDS011;52595;51.608;7.216;2023-08-07T14:28:51;11.07;;;3.30;;
65835;SDS011;52595;51.608;7.216;2023-08-07T14:31:16;10.43;;;3.10;;
65835;SDS011;52595;51.608;7.216;2023-08-07T14:33:42;9.00;;;3.47;;
65835;SDS011;52595;51.608;7.216;2023-08-07T14:36:09;7.70;;;2.88;;
65835;SDS011;52595;51.608;7.216;2023-08-07T14:38:35;6.25;;;2.55;;
65835;SDS011;52595;51.608;7.216;2023-08-07T14:41:00;9.75;;;2.80;;
65835;SDS011;52595;51.608;7.216;2023-08-07T14:43:30;9.05;;;3.05;;
65835;SDS011;52595;51.608;7.216;2023-08-07T14:45:56;8.13;;;2.60;;
65835;SDS011;52595;51.608;7.216;2023-08-07T14:48:22;9.85;;;2.78;;
65835;SDS011;52595;51.608;7.216;2023-08-07T14:50:48;8.43;;;2.80;;
65835;SDS011;52595;51.608;7.216;2023-08-07T14:53:13;8.95;;;3.00;;
65835;SDS011;52595;51.608;7.216;2023-08-07T14:55:38;7.53;;;2.30;;